sensor_id;sensor_type;location;lat;lon;timestamp;P1;durP1;ratioP1;P2;durP2;ratioP2
36497;SDS011;22513;51.222;6.480;2022-09-23T00:00:48;7.68;;;3.80;;
36497;SDS011;22513;51.222;6.480;2022-09-23T00:03:13;6.25;;;3.55;;
36497;SDS011;22513;51.222;6.480;2022-09-23T00:05:44;9.05;;;3.95;;
36497;SDS011;22513;51.222;6.480;2022-09-23T00:08:22;8.02;;;3.78;;
36497;SDS011;22513;51.222;6.480;2022-09-23T00:10:48;7.82;;;3.28;;
36497;SDS011;22513;51.222;6.480;2022-09-23T00:13:14;8.80;;;4.10;;
36497;SDS011;22513;51.222;6.480;2022-09-23T00:15:40;6.05;;;3.90;;
36497;SDS011;22513;51.222;6.480;2022-09-23T00:18:06;7.78;;;3.65;;
36497;SDS011;22513;51.222;6.480;2022-09-23T00:20:32;7.40;;;3.90;;
36497;SDS011;22513;51.222;6.480;2022-09-23T00:22:59;5.68;;;4.10;;
36497;SDS011;22513;51.222;6.480;2022-09-23T00:25:25;5.78;;;3.55;;
36497;SDS011;22513;51.222;6.480;2022-09-23T00:27:53;5.82;;;4.30;;
36497;SDS011;22513;51.222;6.480;2022-09-23T00:30:19;8.52;;;4.40;;
36497;SDS011;22513;51.222;6.480;2022-09-23T00:32:47;6.38;;;3.97;;
36497;SDS011;22513;51.222;6.480;2022-09-23T00:35:13;7.40;;;5.43;;
36497;SDS011;22513;51.222;6.480;2022-09-23T00:37:38;5.60;;;4.22;;
36497;SDS011;22513;51.222;6.480;2022-09-23T00:40:04;6.45;;;3.85;;
36497;SDS011;22513;51.222;6.480;2022-09-23T00:42:31;5.18;;;4.07;;
36497;SDS011;22513;51.222;6.480;2022-09-23T00:44:58;5.28;;;4.45;;
36497;SDS011;22513;51.222;6.480;2022-09-23T00:52:45;6.70;;;4.25;;
36497;SDS011;22513;51.222;6.480;2022-09-23T00:55:12;7.15;;;4.40;;
36497;SDS011;22513;51.222;6.480;2022-09-23T00:57:45;5.60;;;4.47;;
36497;SDS011;22513;51.222;6.480;2022-09-23T01:00:11;5.50;;;4.35;;
36497;SDS011;22513;51.222;6.480;2022-09-23T01:02:38;6.97;;;4.78;;
36497;SDS011;22513;51.222;6.480;2022-09-23T01:05:05;7.50;;;4.80;;
36497;SDS011;22513;51.222;6.480;2022-09-23T01:07:32;7.53;;;4.57;;
36497;SDS011;22513;51.222;6.480;2022-09-23T01:09:58;7.45;;;5.57;;
36497;SDS011;22513;51.222;6.480;2022-09-23T01:12:36;6.90;;;4.95;;
36497;SDS011;22513;51.222;6.480;2022-09-23T01:15:20;5.55;;;4.70;;
36497;SDS011;22513;51.222;6.480;2022-09-23T01:37:11;9.25;;;6.45;;
36497;SDS011;22513;51.222;6.480;2022-09-23T01:39:54;11.40;;;6.43;;
36497;SDS011;22513;51.222;6.480;2022-09-23T01:42:36;9.75;;;6.80;;
36497;SDS011;22513;51.222;6.480;2022-09-23T01:48:32;11.07;;;7.20;;
36497;SDS011;22513;51.222;6.480;2022-09-23T01:56:18;15.35;;;7.55;;
36497;SDS011;22513;51.222;6.480;2022-09-23T01:58:53;11.25;;;8.05;;
36497;SDS011;22513;51.222;6.480;2022-09-23T02:01:37;9.88;;;7.75;;
36497;SDS011;22513;51.222;6.480;2022-09-23T02:04:12;16.77;;;8.85;;
36497;SDS011;22513;51.222;6.480;2022-09-23T02:06:49;11.80;;;8.00;;
36497;SDS011;22513;51.222;6.480;2022-09-23T02:09:23;10.90;;;8.48;;
36497;SDS011;22513;51.222;6.480;2022-09-23T02:11:53;10.77;;;8.23;;
36497;SDS011;22513;51.222;6.480;2022-09-23T02:14:28;12.57;;;8.68;;
36497;SDS011;22513;51.222;6.480;2022-09-23T02:17:21;11.52;;;8.27;;
36497;SDS011;22513;51.222;6.480;2022-09-23T02:19:59;14.52;;;8.43;;
36497;SDS011;22513;51.222;6.480;2022-09-23T02:22:39;12.88;;;9.18;;
36497;SDS011;22513;51.222;6.480;2022-09-23T02:25:11;10.90;;;8.23;;
36497;SDS011;22513;51.222;6.480;2022-09-23T02:27:46;10.95;;;7.45;;
36497;SDS011;22513;51.222;6.480;2022-09-23T02:30:23;10.23;;;8.95;;
36497;SDS011;22513;51.222;6.480;2022-09-23T02:32:57;13.13;;;8.70;;
36497;SDS011;22513;51.222;6.480;2022-09-23T02:40:34;11.65;;;8.43;;
36497;SDS011;22513;51.222;6.480;2022-09-23T02:43:28;12.07;;;9.48;;
36497;SDS011;22513;51.222;6.480;2022-09-23T02:45:59;10.27;;;7.57;;
36497;SDS011;22513;51.222;6.480;2022-09-23T02:48:27;11.63;;;7.78;;
36497;SDS011;22513;51.222;6.480;2022-09-23T02:50:58;9.88;;;7.93;;
36497;SDS011;22513;51.222;6.480;2022-09-23T02:53:26;12.90;;;8.18;;
36497;SDS011;22513;51.222;6.480;2022-09-23T02:55:52;10.15;;;8.00;;
36497;SDS011;22513;51.222;6.480;2022-09-23T02:58:18;11.85;;;7.57;;
36497;SDS011;22513;51.222;6.480;2022-09-23T03:00:49;7.88;;;7.05;;
36497;SDS011;22513;51.222;6.480;2022-09-23T03:03:43;13.65;;;7.35;;
36497;SDS011;22513;51.222;6.480;2022-09-23T03:09:01;13.18;;;7.22;;
36497;SDS011;22513;51.222;6.480;2022-09-23T03:11:44;9.75;;;7.07;;
36497;SDS011;22513;51.222;6.480;2022-09-23T03:14:24;11.02;;;7.45;;
36497;SDS011;22513;51.222;6.480;2022-09-23T03:20:32;9.43;;;7.05;;
36497;SDS011;22513;51.222;6.480;2022-09-23T03:23:12;9.05;;;7.35;;
36497;SDS011;22513;51.222;6.480;2022-09-23T03:25:40;10.73;;;7.13;;
36497;SDS011;22513;51.222;6.480;2022-09-23T03:28:09;9.68;;;7.30;;
36497;SDS011;22513;51.222;6.480;2022-09-23T03:30:35;12.23;;;7.95;;
36497;SDS011;22513;51.222;6.480;2022-09-23T03:33:03;11.30;;;7.75;;
36497;SDS011;22513;51.222;6.480;2022-09-23T03:35:32;10.73;;;7.03;;
36497;SDS011;22513;51.222;6.480;2022-09-23T03:38:22;15.45;;;7.88;;
36497;SDS011;22513;51.222;6.480;2022-09-23T03:40:50;9.20;;;7.18;;
36497;SDS011;22513;51.222;6.480;2022-09-23T03:43:19;9.95;;;7.90;;
36497;SDS011;22513;51.222;6.480;2022-09-23T03:45:45;11.18;;;7.28;;
36497;SDS011;22513;51.222;6.480;2022-09-23T03:48:11;10.20;;;7.60;;
36497;SDS011;22513;51.222;6.480;2022-09-23T03:50:39;11.02;;;7.90;;
36497;SDS011;22513;51.222;6.480;2022-09-23T03:53:05;15.02;;;7.57;;
36497;SDS011;22513;51.222;6.480;2022-09-23T03:55:31;9.65;;;7.88;;
36497;SDS011;22513;51.222;6.480;2022-09-23T03:57:57;11.60;;;7.10;;
36497;SDS011;22513;51.222;6.480;2022-09-23T04:00:24;11.45;;;7.30;;
36497;SDS011;22513;51.222;6.480;2022-09-23T04:02:50;14.23;;;7.68;;
36497;SDS011;22513;51.222;6.480;2022-09-23T04:05:16;13.48;;;7.90;;
36497;SDS011;22513;51.222;6.480;2022-09-23T04:07:42;10.65;;;7.45;;
36497;SDS011;22513;51.222;6.480;2022-09-23T04:10:07;14.77;;;7.55;;
36497;SDS011;22513;51.222;6.480;2022-09-23T04:12:34;10.00;;;7.25;;
36497;SDS011;22513;51.222;6.480;2022-09-23T04:15:00;9.02;;;7.25;;
36497;SDS011;22513;51.222;6.480;2022-09-23T04:17:25;10.32;;;7.60;;
36497;SDS011;22513;51.222;6.480;2022-09-23T04:19:51;11.68;;;6.95;;
36497;SDS011;22513;51.222;6.480;2022-09-23T04:22:17;9.90;;;7.53;;
36497;SDS011;22513;51.222;6.480;2022-09-23T04:24:42;10.73;;;6.97;;
36497;SDS011;22513;51.222;6.480;2022-09-23T04:27:08;12.25;;;7.18;;
36497;SDS011;22513;51.222;6.480;2022-09-23T04:29:33;12.65;;;7.57;;
36497;SDS011;22513;51.222;6.480;2022-09-23T04:31:59;13.65;;;7.45;;
36497;SDS011;22513;51.222;6.480;2022-09-23T04:34:25;11.40;;;7.45;;
36497;SDS011;22513;51.222;6.480;2022-09-23T04:36:50;10.95;;;7.30;;
36497;SDS011;22513;51.222;6.480;2022-09-23T04:39:16;9.98;;;7.95;;
36497;SDS011;22513;51.222;6.480;2022-09-23T04:41:42;14.68;;;7.75;;
36497;SDS011;22513;51.222;6.480;2022-09-23T04:44:10;16.67;;;7.68;;
36497;SDS011;22513;51.222;6.480;2022-09-23T04:46:36;10.07;;;8.25;;
36497;SDS011;22513;51.222;6.480;2022-09-23T04:49:03;16.92;;;7.70;;
36497;SDS011;22513;51.222;6.480;2022-09-23T04:53:59;13.98;;;7.65;;
36497;SDS011;22513;51.222;6.480;2022-09-23T04:56:26;11.15;;;8.35;;
36497;SDS011;22513;51.222;6.480;2022-09-23T04:58:53;12.02;;;8.27;;
36497;SDS011;22513;51.222;6.480;2022-09-23T05:01:26;12.95;;;7.75;;
36497;SDS011;22513;51.222;6.480;2022-09-23T05:03:54;12.85;;;8.48;;
36497;SDS011;22513;51.222;6.480;2022-09-23T05:06:22;14.85;;;9.00;;
36497;SDS011;22513;51.222;6.480;2022-09-23T05:08:49;11.02;;;8.88;;
36497;SDS011;22513;51.222;6.480;2022-09-23T05:11:16;14.07;;;9.32;;
36497;SDS011;22513;51.222;6.480;2022-09-23T05:13:43;12.07;;;8.77;;
36497;SDS011;22513;51.222;6.480;2022-09-23T05:16:11;14.57;;;9.63;;
36497;SDS011;22513;51.222;6.480;2022-09-23T05:18:38;13.88;;;9.75;;
36497;SDS011;22513;51.222;6.480;2022-09-23T05:21:12;12.68;;;9.52;;
36497;SDS011;22513;51.222;6.480;2022-09-23T05:23:39;10.65;;;9.55;;
36497;SDS011;22513;51.222;6.480;2022-09-23T05:26:07;13.02;;;9.30;;
36497;SDS011;22513;51.222;6.480;2022-09-23T05:28:36;11.82;;;9.35;;
36497;SDS011;22513;51.222;6.480;2022-09-23T05:31:07;13.40;;;9.10;;
36497;SDS011;22513;51.222;6.480;2022-09-23T05:33:41;16.10;;;9.93;;
36497;SDS011;22513;51.222;6.480;2022-09-23T05:36:09;12.07;;;9.85;;
36497;SDS011;22513;51.222;6.480;2022-09-23T05:38:36;12.23;;;7.85;;
36497;SDS011;22513;51.222;6.480;2022-09-23T05:41:04;13.13;;;9.18;;
36497;SDS011;22513;51.222;6.480;2022-09-23T05:43:35;11.85;;;8.07;;
36497;SDS011;22513;51.222;6.480;2022-09-23T05:48:28;9.32;;;7.05;;
36497;SDS011;22513;51.222;6.480;2022-09-23T05:50:57;9.23;;;7.55;;
36497;SDS011;22513;51.222;6.480;2022-09-23T05:53:23;11.15;;;6.32;;
36497;SDS011;22513;51.222;6.480;2022-09-23T05:55:49;12.60;;;5.78;;
36497;SDS011;22513;51.222;6.480;2022-09-23T05:58:15;9.25;;;5.78;;
36497;SDS011;22513;51.222;6.480;2022-09-23T06:00:41;9.55;;;5.10;;
36497;SDS011;22513;51.222;6.480;2022-09-23T06:03:12;8.68;;;5.15;;
36497;SDS011;22513;51.222;6.480;2022-09-23T06:05:39;9.27;;;5.50;;
36497;SDS011;22513;51.222;6.480;2022-09-23T06:08:05;7.95;;;4.57;;
36497;SDS011;22513;51.222;6.480;2022-09-23T06:10:38;7.45;;;4.57;;
36497;SDS011;22513;51.222;6.480;2022-09-23T06:13:05;7.05;;;4.70;;
36497;SDS011;22513;51.222;6.480;2022-09-23T06:15:31;6.70;;;4.65;;
36497;SDS011;22513;51.222;6.480;2022-09-23T06:17:57;7.72;;;5.20;;
36497;SDS011;22513;51.222;6.480;2022-09-23T06:20:23;18.08;;;5.30;;
36497;SDS011;22513;51.222;6.480;2022-09-23T06:22:52;9.23;;;4.13;;
36497;SDS011;22513;51.222;6.480;2022-09-23T06:25:22;6.25;;;3.90;;
36497;SDS011;22513;51.222;6.480;2022-09-23T06:27:52;7.30;;;3.88;;
36497;SDS011;22513;51.222;6.480;2022-09-23T06:30:18;8.25;;;4.10;;
36497;SDS011;22513;51.222;6.480;2022-09-23T06:32:48;6.82;;;4.50;;
36497;SDS011;22513;51.222;6.480;2022-09-23T06:35:21;7.63;;;4.07;;
36497;SDS011;22513;51.222;6.480;2022-09-23T06:37:49;6.18;;;3.95;;
36497;SDS011;22513;51.222;6.480;2022-09-23T06:40:15;10.57;;;3.60;;
36497;SDS011;22513;51.222;6.480;2022-09-23T06:42:41;9.55;;;3.63;;
36497;SDS011;22513;51.222;6.480;2022-09-23T06:45:10;9.40;;;3.80;;
36497;SDS011;22513;51.222;6.480;2022-09-23T06:47:39;4.28;;;2.97;;
36497;SDS011;22513;51.222;6.480;2022-09-23T06:50:05;6.82;;;4.22;;
36497;SDS011;22513;51.222;6.480;2022-09-23T06:52:32;6.10;;;3.08;;
36497;SDS011;22513;51.222;6.480;2022-09-23T06:54:58;4.82;;;3.33;;
36497;SDS011;22513;51.222;6.480;2022-09-23T06:57:27;5.70;;;3.45;;
36497;SDS011;22513;51.222;6.480;2022-09-23T06:59:54;4.25;;;3.72;;
36497;SDS011;22513;51.222;6.480;2022-09-23T07:02:19;7.78;;;3.50;;
36497;SDS011;22513;51.222;6.480;2022-09-23T07:04:45;7.05;;;3.15;;
36497;SDS011;22513;51.222;6.480;2022-09-23T07:07:10;5.47;;;3.33;;
36497;SDS011;22513;51.222;6.480;2022-09-23T07:09:38;6.13;;;3.30;;
36497;SDS011;22513;51.222;6.480;2022-09-23T07:12:03;5.13;;;3.97;;
36497;SDS011;22513;51.222;6.480;2022-09-23T07:14:29;6.97;;;4.22;;
36497;SDS011;22513;51.222;6.480;2022-09-23T07:16:54;5.72;;;3.17;;
36497;SDS011;22513;51.222;6.480;2022-09-23T07:19:20;6.30;;;3.90;;
36497;SDS011;22513;51.222;6.480;2022-09-23T07:21:46;9.38;;;4.65;;
36497;SDS011;22513;51.222;6.480;2022-09-23T07:24:12;6.80;;;3.47;;
36497;SDS011;22513;51.222;6.480;2022-09-23T07:26:37;4.63;;;3.58;;
36497;SDS011;22513;51.222;6.480;2022-09-23T07:29:03;7.25;;;3.75;;
36497;SDS011;22513;51.222;6.480;2022-09-23T07:31:33;8.57;;;3.42;;
36497;SDS011;22513;51.222;6.480;2022-09-23T07:33:59;8.40;;;3.80;;
36497;SDS011;22513;51.222;6.480;2022-09-23T07:36:26;9.77;;;4.07;;
36497;SDS011;22513;51.222;6.480;2022-09-23T07:38:52;6.30;;;3.65;;
36497;SDS011;22513;51.222;6.480;2022-09-23T07:41:27;8.02;;;3.50;;
36497;SDS011;22513;51.222;6.480;2022-09-23T07:43:55;7.13;;;3.53;;
36497;SDS011;22513;51.222;6.480;2022-09-23T07:46:23;8.65;;;4.10;;
36497;SDS011;22513;51.222;6.480;2022-09-23T07:48:51;6.95;;;4.05;;
36497;SDS011;22513;51.222;6.480;2022-09-23T07:51:28;7.38;;;3.60;;
36497;SDS011;22513;51.222;6.480;2022-09-23T07:54:01;6.15;;;4.30;;
36497;SDS011;22513;51.222;6.480;2022-09-23T07:56:28;12.50;;;5.63;;
36497;SDS011;22513;51.222;6.480;2022-09-23T07:58:54;8.90;;;3.80;;
36497;SDS011;22513;51.222;6.480;2022-09-23T08:01:30;7.78;;;4.10;;
36497;SDS011;22513;51.222;6.480;2022-09-23T08:03:57;8.05;;;3.58;;
36497;SDS011;22513;51.222;6.480;2022-09-23T08:06:25;6.97;;;3.55;;
36497;SDS011;22513;51.222;6.480;2022-09-23T08:08:51;6.78;;;4.03;;
36497;SDS011;22513;51.222;6.480;2022-09-23T08:11:16;6.57;;;3.78;;
36497;SDS011;22513;51.222;6.480;2022-09-23T08:13:42;6.80;;;3.65;;
36497;SDS011;22513;51.222;6.480;2022-09-23T08:16:08;6.10;;;3.97;;
36497;SDS011;22513;51.222;6.480;2022-09-23T08:18:34;8.75;;;4.20;;
36497;SDS011;22513;51.222;6.480;2022-09-23T08:21:01;10.38;;;4.10;;
36497;SDS011;22513;51.222;6.480;2022-09-23T08:23:27;6.30;;;3.45;;
36497;SDS011;22513;51.222;6.480;2022-09-23T08:25:58;7.13;;;3.85;;
36497;SDS011;22513;51.222;6.480;2022-09-23T08:28:25;7.05;;;3.60;;
36497;SDS011;22513;51.222;6.480;2022-09-23T08:30:52;7.78;;;3.78;;
36497;SDS011;22513;51.222;6.480;2022-09-23T08:33:18;5.90;;;3.70;;
36497;SDS011;22513;51.222;6.480;2022-09-23T08:35:43;10.18;;;4.30;;
36497;SDS011;22513;51.222;6.480;2022-09-23T08:38:09;5.15;;;3.90;;
36497;SDS011;22513;51.222;6.480;2022-09-23T08:40:35;5.65;;;3.92;;
36497;SDS011;22513;51.222;6.480;2022-09-23T08:43:05;8.02;;;4.97;;
36497;SDS011;22513;51.222;6.480;2022-09-23T08:45:36;13.05;;;4.30;;
36497;SDS011;22513;51.222;6.480;2022-09-23T08:48:09;9.67;;;4.20;;
36497;SDS011;22513;51.222;6.480;2022-09-23T08:50:42;5.50;;;3.88;;
36497;SDS011;22513;51.222;6.480;2022-09-23T08:55:48;9.38;;;3.78;;
36497;SDS011;22513;51.222;6.480;2022-09-23T09:03:32;6.35;;;3.97;;
36497;SDS011;22513;51.222;6.480;2022-09-23T09:06:00;6.85;;;3.85;;
36497;SDS011;22513;51.222;6.480;2022-09-23T09:08:29;6.40;;;3.50;;
36497;SDS011;22513;51.222;6.480;2022-09-23T09:10:58;10.07;;;4.10;;
36497;SDS011;22513;51.222;6.480;2022-09-23T09:16:08;7.40;;;3.72;;
36497;SDS011;22513;51.222;6.480;2022-09-23T09:18:51;11.30;;;3.90;;
36497;SDS011;22513;51.222;6.480;2022-09-23T09:21:20;7.22;;;3.95;;
36497;SDS011;22513;51.222;6.480;2022-09-23T09:23:57;6.22;;;3.30;;
36497;SDS011;22513;51.222;6.480;2022-09-23T09:26:34;4.95;;;3.90;;
36497;SDS011;22513;51.222;6.480;2022-09-23T09:31:49;6.13;;;3.47;;
36497;SDS011;22513;51.222;6.480;2022-09-23T09:39:30;7.57;;;3.67;;
36497;SDS011;22513;51.222;6.480;2022-09-23T09:41:57;8.18;;;3.75;;
36497;SDS011;22513;51.222;6.480;2022-09-23T09:44:34;6.63;;;3.80;;
36497;SDS011;22513;51.222;6.480;2022-09-23T09:50:12;8.10;;;3.80;;
36497;SDS011;22513;51.222;6.480;2022-09-23T09:52:39;7.40;;;4.07;;
36497;SDS011;22513;51.222;6.480;2022-09-23T10:00:32;4.90;;;3.53;;
36497;SDS011;22513;51.222;6.480;2022-09-23T10:03:00;6.28;;;3.53;;
36497;SDS011;22513;51.222;6.480;2022-09-23T10:05:47;9.63;;;3.45;;
36497;SDS011;22513;51.222;6.480;2022-09-23T10:11:03;6.20;;;3.50;;
36497;SDS011;22513;51.222;6.480;2022-09-23T10:13:32;6.82;;;3.60;;
36497;SDS011;22513;51.222;6.480;2022-09-23T10:15:59;6.20;;;3.85;;
36497;SDS011;22513;51.222;6.480;2022-09-23T10:21:14;12.65;;;4.10;;
36497;SDS011;22513;51.222;6.480;2022-09-23T10:23:42;6.90;;;3.53;;
36497;SDS011;22513;51.222;6.480;2022-09-23T10:26:10;8.27;;;4.00;;
36497;SDS011;22513;51.222;6.480;2022-09-23T10:28:43;7.72;;;3.38;;
36497;SDS011;22513;51.222;6.480;2022-09-23T10:31:12;10.80;;;3.70;;
36497;SDS011;22513;51.222;6.480;2022-09-23T10:33:40;11.88;;;4.05;;
36497;SDS011;22513;51.222;6.480;2022-09-23T10:36:11;11.30;;;3.85;;
36497;SDS011;22513;51.222;6.480;2022-09-23T10:38:39;12.35;;;4.90;;
36497;SDS011;22513;51.222;6.480;2022-09-23T10:41:09;8.50;;;3.13;;
36497;SDS011;22513;51.222;6.480;2022-09-23T10:44:16;5.13;;;2.75;;
36497;SDS011;22513;51.222;6.480;2022-09-23T10:47:20;5.97;;;3.17;;
36497;SDS011;22513;51.222;6.480;2022-09-23T10:56:14;6.38;;;2.72;;
36497;SDS011;22513;51.222;6.480;2022-09-23T11:04:01;3.33;;;2.60;;
36497;SDS011;22513;51.222;6.480;2022-09-23T11:06:44;3.42;;;2.50;;
36497;SDS011;22513;51.222;6.480;2022-09-23T11:25:33;5.47;;;2.55;;
36497;SDS011;22513;51.222;6.480;2022-09-23T11:31:06;5.03;;;2.30;;
36497;SDS011;22513;51.222;6.480;2022-09-23T11:36:38;8.43;;;3.10;;
36497;SDS011;22513;51.222;6.480;2022-09-23T11:42:04;6.32;;;2.85;;
36497;SDS011;22513;51.222;6.480;2022-09-23T11:44:48;6.22;;;2.60;;
36497;SDS011;22513;51.222;6.480;2022-09-23T11:47:23;6.60;;;2.58;;
36497;SDS011;22513;51.222;6.480;2022-09-23T11:50:00;7.97;;;2.92;;
36497;SDS011;22513;51.222;6.480;2022-09-23T11:52:35;8.27;;;2.55;;
36497;SDS011;22513;51.222;6.480;2022-09-23T11:55:26;5.63;;;2.17;;
36497;SDS011;22513;51.222;6.480;2022-09-23T11:57:58;4.80;;;2.30;;
36497;SDS011;22513;51.222;6.480;2022-09-23T12:01:04;6.45;;;2.50;;
36497;SDS011;22513;51.222;6.480;2022-09-23T12:06:02;3.63;;;1.98;;
36497;SDS011;22513;51.222;6.480;2022-09-23T12:08:34;4.00;;;1.90;;
36497;SDS011;22513;51.222;6.480;2022-09-23T12:13:32;3.10;;;2.00;;
36497;SDS011;22513;51.222;6.480;2022-09-23T12:18:40;3.40;;;1.90;;
36497;SDS011;22513;51.222;6.480;2022-09-23T12:21:33;7.47;;;1.98;;
36497;SDS011;22513;51.222;6.480;2022-09-23T12:26:32;4.43;;;2.07;;
36497;SDS011;22513;51.222;6.480;2022-09-23T12:28:59;5.22;;;1.90;;
36497;SDS011;22513;51.222;6.480;2022-09-23T12:33:56;4.10;;;2.00;;
36497;SDS011;22513;51.222;6.480;2022-09-23T12:36:33;9.50;;;2.30;;
36497;SDS011;22513;51.222;6.480;2022-09-23T12:39:16;4.50;;;2.10;;
36497;SDS011;22513;51.222;6.480;2022-09-23T12:41:48;3.63;;;1.90;;
36497;SDS011;22513;51.222;6.480;2022-09-23T12:49:52;4.90;;;2.23;;
36497;SDS011;22513;51.222;6.480;2022-09-23T12:59:53;6.45;;;2.63;;
36497;SDS011;22513;51.222;6.480;2022-09-23T13:07:47;3.42;;;1.77;;
36497;SDS011;22513;51.222;6.480;2022-09-23T13:10:33;3.90;;;1.90;;
36497;SDS011;22513;51.222;6.480;2022-09-23T13:13:11;2.60;;;1.60;;
36497;SDS011;22513;51.222;6.480;2022-09-23T13:16:10;3.53;;;1.73;;
36497;SDS011;22513;51.222;6.480;2022-09-23T13:18:58;6.85;;;2.47;;
36497;SDS011;22513;51.222;6.480;2022-09-23T13:24:58;4.07;;;1.80;;
36497;SDS011;22513;51.222;6.480;2022-09-23T13:32:43;4.57;;;2.35;;
36497;SDS011;22513;51.222;6.480;2022-09-23T13:35:35;5.40;;;2.43;;
36497;SDS011;22513;51.222;6.480;2022-09-23T13:38:10;4.13;;;1.80;;
36497;SDS011;22513;51.222;6.480;2022-09-23T13:40:42;2.38;;;1.38;;
36497;SDS011;22513;51.222;6.480;2022-09-23T13:43:12;5.07;;;1.70;;
36497;SDS011;22513;51.222;6.480;2022-09-23T13:45:44;1.58;;;1.20;;
36497;SDS011;22513;51.222;6.480;2022-09-23T13:48:11;4.45;;;2.08;;
36497;SDS011;22513;51.222;6.480;2022-09-23T13:50:42;3.05;;;1.40;;
36497;SDS011;22513;51.222;6.480;2022-09-23T13:53:15;3.42;;;1.20;;
36497;SDS011;22513;51.222;6.480;2022-09-23T13:56:06;2.88;;;1.33;;
36497;SDS011;22513;51.222;6.480;2022-09-23T13:58:35;7.65;;;1.38;;
36497;SDS011;22513;51.222;6.480;2022-09-23T14:01:01;3.83;;;1.33;;
36497;SDS011;22513;51.222;6.480;2022-09-23T14:03:33;4.60;;;2.03;;
36497;SDS011;22513;51.222;6.480;2022-09-23T14:06:01;4.10;;;2.00;;
36497;SDS011;22513;51.222;6.480;2022-09-23T14:08:33;3.05;;;1.70;;
36497;SDS011;22513;51.222;6.480;2022-09-23T14:11:02;1.98;;;1.55;;
36497;SDS011;22513;51.222;6.480;2022-09-23T14:13:29;2.47;;;1.15;;
36497;SDS011;22513;51.222;6.480;2022-09-23T14:15:57;2.25;;;1.40;;
36497;SDS011;22513;51.222;6.480;2022-09-23T14:18:26;4.68;;;1.50;;
36497;SDS011;22513;51.222;6.480;2022-09-23T14:20:55;5.95;;;1.48;;
36497;SDS011;22513;51.222;6.480;2022-09-23T14:23:21;6.22;;;1.88;;
36497;SDS011;22513;51.222;6.480;2022-09-23T14:25:47;5.13;;;1.88;;
36497;SDS011;22513;51.222;6.480;2022-09-23T14:28:15;4.05;;;1.60;;
36497;SDS011;22513;51.222;6.480;2022-09-23T14:30:43;3.15;;;1.08;;
36497;SDS011;22513;51.222;6.480;2022-09-23T14:33:13;2.72;;;1.20;;
36497;SDS011;22513;51.222;6.480;2022-09-23T14:35:43;3.83;;;1.40;;
36497;SDS011;22513;51.222;6.480;2022-09-23T14:38:18;4.15;;;1.55;;
36497;SDS011;22513;51.222;6.480;2022-09-23T14:41:14;3.80;;;1.20;;
36497;SDS011;22513;51.222;6.480;2022-09-23T14:43:46;8.40;;;1.67;;
36497;SDS011;22513;51.222;6.480;2022-09-23T14:46:19;4.28;;;1.92;;
36497;SDS011;22513;51.222;6.480;2022-09-23T14:51:34;4.68;;;1.30;;
36497;SDS011;22513;51.222;6.480;2022-09-23T14:59:47;3.50;;;1.45;;
36497;SDS011;22513;51.222;6.480;2022-09-23T15:02:34;2.97;;;1.42;;
36497;SDS011;22513;51.222;6.480;2022-09-23T15:05:11;5.10;;;2.03;;
36497;SDS011;22513;51.222;6.480;2022-09-23T15:07:40;5.47;;;2.13;;
36497;SDS011;22513;51.222;6.480;2022-09-23T15:10:07;3.85;;;1.50;;
36497;SDS011;22513;51.222;6.480;2022-09-23T15:12:41;6.88;;;1.88;;
36497;SDS011;22513;51.222;6.480;2022-09-23T15:15:11;7.00;;;1.70;;
36497;SDS011;22513;51.222;6.480;2022-09-23T15:17:38;3.95;;;1.60;;
36497;SDS011;22513;51.222;6.480;2022-09-23T15:20:15;4.57;;;1.60;;
36497;SDS011;22513;51.222;6.480;2022-09-23T15:22:45;5.00;;;1.60;;
36497;SDS011;22513;51.222;6.480;2022-09-23T15:27:59;5.82;;;1.90;;
36497;SDS011;22513;51.222;6.480;2022-09-23T15:30:26;4.80;;;2.03;;
36497;SDS011;22513;51.222;6.480;2022-09-23T15:32:53;3.33;;;1.75;;
36497;SDS011;22513;51.222;6.480;2022-09-23T15:35:19;4.20;;;1.95;;
36497;SDS011;22513;51.222;6.480;2022-09-23T15:37:47;3.90;;;1.60;;
36497;SDS011;22513;51.222;6.480;2022-09-23T15:40:33;6.30;;;2.25;;
36497;SDS011;22513;51.222;6.480;2022-09-23T15:43:16;2.80;;;1.67;;
36497;SDS011;22513;51.222;6.480;2022-09-23T15:45:52;4.32;;;1.80;;
36497;SDS011;22513;51.222;6.480;2022-09-23T15:50:50;4.75;;;1.70;;
36497;SDS011;22513;51.222;6.480;2022-09-23T15:53:20;3.53;;;1.80;;
36497;SDS011;22513;51.222;6.480;2022-09-23T15:55:52;4.70;;;2.28;;
36497;SDS011;22513;51.222;6.480;2022-09-23T15:58:18;5.15;;;1.83;;
36497;SDS011;22513;51.222;6.480;2022-09-23T16:00:45;5.40;;;1.88;;
36497;SDS011;22513;51.222;6.480;2022-09-23T16:03:16;7.45;;;1.88;;
36497;SDS011;22513;51.222;6.480;2022-09-23T16:05:44;6.07;;;2.17;;
36497;SDS011;22513;51.222;6.480;2022-09-23T16:08:13;6.37;;;1.97;;
36497;SDS011;22513;51.222;6.480;2022-09-23T16:10:39;9.43;;;2.33;;
36497;SDS011;22513;51.222;6.480;2022-09-23T16:13:09;8.95;;;2.10;;
36497;SDS011;22513;51.222;6.480;2022-09-23T16:15:37;7.38;;;2.38;;
36497;SDS011;22513;51.222;6.480;2022-09-23T16:18:03;5.53;;;1.90;;
36497;SDS011;22513;51.222;6.480;2022-09-23T16:20:30;4.65;;;1.90;;
36497;SDS011;22513;51.222;6.480;2022-09-23T16:23:00;6.22;;;2.17;;
36497;SDS011;22513;51.222;6.480;2022-09-23T16:25:28;3.08;;;2.03;;
36497;SDS011;22513;51.222;6.480;2022-09-23T16:27:57;4.35;;;1.90;;
36497;SDS011;22513;51.222;6.480;2022-09-23T16:30:23;4.78;;;2.58;;
36497;SDS011;22513;51.222;6.480;2022-09-23T16:32:50;6.20;;;2.22;;
36497;SDS011;22513;51.222;6.480;2022-09-23T16:35:19;5.30;;;2.17;;
36497;SDS011;22513;51.222;6.480;2022-09-23T16:37:46;5.72;;;2.58;;
36497;SDS011;22513;51.222;6.480;2022-09-23T16:40:13;6.95;;;2.03;;
36497;SDS011;22513;51.222;6.480;2022-09-23T16:42:44;4.63;;;2.10;;
36497;SDS011;22513;51.222;6.480;2022-09-23T16:45:11;6.93;;;2.17;;
36497;SDS011;22513;51.222;6.480;2022-09-23T16:47:46;5.55;;;2.45;;
36497;SDS011;22513;51.222;6.480;2022-09-23T16:50:15;8.73;;;2.60;;
36497;SDS011;22513;51.222;6.480;2022-09-23T16:55:08;10.73;;;2.72;;
36497;SDS011;22513;51.222;6.480;2022-09-23T16:57:35;5.45;;;2.38;;
36497;SDS011;22513;51.222;6.480;2022-09-23T17:00:11;8.65;;;2.42;;
36497;SDS011;22513;51.222;6.480;2022-09-23T17:02:57;4.53;;;2.28;;
36497;SDS011;22513;51.222;6.480;2022-09-23T17:05:42;6.30;;;2.42;;
36497;SDS011;22513;51.222;6.480;2022-09-23T17:08:09;4.07;;;2.08;;
36497;SDS011;22513;51.222;6.480;2022-09-23T17:10:37;6.93;;;2.50;;
36497;SDS011;22513;51.222;6.480;2022-09-23T17:13:04;5.43;;;2.05;;
36497;SDS011;22513;51.222;6.480;2022-09-23T17:15:34;6.03;;;2.50;;
36497;SDS011;22513;51.222;6.480;2022-09-23T17:18:04;7.78;;;2.90;;
36497;SDS011;22513;51.222;6.480;2022-09-23T17:20:33;4.95;;;2.60;;
36497;SDS011;22513;51.222;6.480;2022-09-23T17:22:59;7.18;;;3.03;;
36497;SDS011;22513;51.222;6.480;2022-09-23T17:25:25;7.70;;;3.03;;
36497;SDS011;22513;51.222;6.480;2022-09-23T17:27:51;6.85;;;3.03;;
36497;SDS011;22513;51.222;6.480;2022-09-23T17:30:16;4.50;;;2.83;;
36497;SDS011;22513;51.222;6.480;2022-09-23T17:32:42;4.95;;;2.85;;
36497;SDS011;22513;51.222;6.480;2022-09-23T17:35:08;4.95;;;3.00;;
36497;SDS011;22513;51.222;6.480;2022-09-23T17:37:34;6.63;;;3.40;;
36497;SDS011;22513;51.222;6.480;2022-09-23T17:40:01;6.40;;;2.95;;
36497;SDS011;22513;51.222;6.480;2022-09-23T17:42:27;7.47;;;3.33;;
36497;SDS011;22513;51.222;6.480;2022-09-23T17:44:53;8.90;;;3.58;;
36497;SDS011;22513;51.222;6.480;2022-09-23T17:47:20;11.27;;;4.85;;
36497;SDS011;22513;51.222;6.480;2022-09-23T17:49:46;9.98;;;3.65;;
36497;SDS011;22513;51.222;6.480;2022-09-23T17:52:14;7.40;;;2.70;;
36497;SDS011;22513;51.222;6.480;2022-09-23T17:54:40;8.20;;;3.20;;
36497;SDS011;22513;51.222;6.480;2022-09-23T17:57:05;8.02;;;3.50;;